In Rescue
 
Open Full Screen Window  High Contrast Mode
Wind Gusting 00 knots
08
May 20, 2019 1:33 PM CDT
Weather Information
Wind Direction
  180 °
Wind Speed
  08 kt (9 mph)
Wind Gust
  00 kt (0 mph)
Altimeter
30.18 in
Visibility
10 SM
Temperature
15° C
59° F
Dewpoint
03° C
37° F
Humidity
45%
Sky Condition
Clear
VFR

METAR KDYT 201833Z AUTO 18008KT 10SM CLR 15/03 A3018 RMK AO2

FAA Disclaimer: The data displayed is for advisory purposes only and is not to be used for flight planning or operations.